sensor_id;sensor_type;location;lat;lon;timestamp;temperature;humidity
15121;DHT22;7661;48.904;9.414;2023-06-26T00:09:56;20.80;85.00
15121;DHT22;7661;48.904;9.414;2023-06-26T00:12:25;20.60;86.70
15121;DHT22;7661;48.904;9.414;2023-06-26T00:14:52;20.50;87.70
15121;DHT22;7661;48.904;9.414;2023-06-26T00:17:20;20.40;88.50
15121;DHT22;7661;48.904;9.414;2023-06-26T00:19:47;20.30;89.00
15121;DHT22;7661;48.904;9.414;2023-06-26T00:22:13;20.30;89.70
15121;DHT22;7661;48.904;9.414;2023-06-26T00:24:40;20.30;89.60
15121;DHT22;7661;48.904;9.414;2023-06-26T00:27:07;20.20;90.20
15121;DHT22;7661;48.904;9.414;2023-06-26T00:29:35;20.10;90.10
15121;DHT22;7661;48.904;9.414;2023-06-26T00:32:04;20.00;90.30
15121;DHT22;7661;48.904;9.414;2023-06-26T00:34:31;20.00;90.50
15121;DHT22;7661;48.904;9.414;2023-06-26T00:36:58;20.00;90.70
15121;DHT22;7661;48.904;9.414;2023-06-26T00:39:25;20.00;90.70
15121;DHT22;7661;48.904;9.414;2023-06-26T00:41:52;20.00;90.70
15121;DHT22;7661;48.904;9.414;2023-06-26T00:44:20;20.00;90.90
15121;DHT22;7661;48.904;9.414;2023-06-26T00:46:48;19.90;90.80
15121;DHT22;7661;48.904;9.414;2023-06-26T00:49:15;19.90;90.80
15121;DHT22;7661;48.904;9.414;2023-06-26T00:51:43;19.90;90.90
15121;DHT22;7661;48.904;9.414;2023-06-26T00:54:10;19.80;90.90
15121;DHT22;7661;48.904;9.414;2023-06-26T00:56:37;19.80;91.10
15121;DHT22;7661;48.904;9.414;2023-06-26T00:59:05;19.80;91.30
15121;DHT22;7661;48.904;9.414;2023-06-26T01:01:32;19.70;91.30
15121;DHT22;7661;48.904;9.414;2023-06-26T01:04:00;19.70;91.40
15121;DHT22;7661;48.904;9.414;2023-06-26T01:06:28;19.70;91.50
15121;DHT22;7661;48.904;9.414;2023-06-26T01:08:57;19.70;91.80
15121;DHT22;7661;48.904;9.414;2023-06-26T01:11:24;19.60;92.30
15121;DHT22;7661;48.904;9.414;2023-06-26T01:13:53;19.60;92.00
15121;DHT22;7661;48.904;9.414;2023-06-26T01:16:21;19.50;92.20
15121;DHT22;7661;48.904;9.414;2023-06-26T01:18:50;19.50;92.40
15121;DHT22;7661;48.904;9.414;2023-06-26T01:21:18;19.40;92.50
15121;DHT22;7661;48.904;9.414;2023-06-26T01:23:58;19.40;92.70
15121;DHT22;7661;48.904;9.414;2023-06-26T01:26:34;19.40;92.70
15121;DHT22;7661;48.904;9.414;2023-06-26T01:29:02;19.30;92.90
15121;DHT22;7661;48.904;9.414;2023-06-26T01:31:31;19.30;93.00
15121;DHT22;7661;48.904;9.414;2023-06-26T01:33:58;19.30;93.00
15121;DHT22;7661;48.904;9.414;2023-06-26T01:36:26;19.30;93.30
15121;DHT22;7661;48.904;9.414;2023-06-26T01:38:53;19.30;93.30
15121;DHT22;7661;48.904;9.414;2023-06-26T01:41:20;19.30;93.40
15121;DHT22;7661;48.904;9.414;2023-06-26T01:44:01;19.20;93.50
15121;DHT22;7661;48.904;9.414;2023-06-26T01:46:35;19.20;93.70
15121;DHT22;7661;48.904;9.414;2023-06-26T01:49:08;19.20;94.20
15121;DHT22;7661;48.904;9.414;2023-06-26T01:51:42;19.10;94.20
15121;DHT22;7661;48.904;9.414;2023-06-26T01:54:17;19.10;93.70
15121;DHT22;7661;48.904;9.414;2023-06-26T01:56:45;19.10;94.20
15121;DHT22;7661;48.904;9.414;2023-06-26T01:59:18;19.00;94.20
15121;DHT22;7661;48.904;9.414;2023-06-26T02:01:46;19.00;94.70
15121;DHT22;7661;48.904;9.414;2023-06-26T02:04:13;18.90;94.90
15121;DHT22;7661;48.904;9.414;2023-06-26T02:06:40;18.90;94.60
15121;DHT22;7661;48.904;9.414;2023-06-26T02:09:07;19.00;94.60
15121;DHT22;7661;48.904;9.414;2023-06-26T02:11:34;18.90;94.70
15121;DHT22;7661;48.904;9.414;2023-06-26T02:14:01;18.80;94.80
15121;DHT22;7661;48.904;9.414;2023-06-26T02:16:29;18.80;95.00
15121;DHT22;7661;48.904;9.414;2023-06-26T02:18:56;18.80;95.20
15121;DHT22;7661;48.904;9.414;2023-06-26T02:21:23;18.80;94.90
15121;DHT22;7661;48.904;9.414;2023-06-26T02:23:50;18.70;95.20
15121;DHT22;7661;48.904;9.414;2023-06-26T02:26:17;18.70;95.60
15121;DHT22;7661;48.904;9.414;2023-06-26T02:28:44;18.60;95.50
15121;DHT22;7661;48.904;9.414;2023-06-26T02:31:11;18.50;95.80
15121;DHT22;7661;48.904;9.414;2023-06-26T02:33:39;18.50;95.60
15121;DHT22;7661;48.904;9.414;2023-06-26T02:36:07;18.40;95.70
15121;DHT22;7661;48.904;9.414;2023-06-26T02:38:34;18.40;95.80
15121;DHT22;7661;48.904;9.414;2023-06-26T02:41:01;18.40;96.00
15121;DHT22;7661;48.904;9.414;2023-06-26T02:43:28;18.40;95.90
15121;DHT22;7661;48.904;9.414;2023-06-26T02:45:55;18.40;96.10
15121;DHT22;7661;48.904;9.414;2023-06-26T02:48:22;18.40;96.10
15121;DHT22;7661;48.904;9.414;2023-06-26T02:50:50;18.30;96.30
15121;DHT22;7661;48.904;9.414;2023-06-26T02:53:17;18.30;96.50
15121;DHT22;7661;48.904;9.414;2023-06-26T02:55:44;18.30;96.60
15121;DHT22;7661;48.904;9.414;2023-06-26T02:58:12;18.30;96.70
15121;DHT22;7661;48.904;9.414;2023-06-26T03:00:39;18.20;96.70
15121;DHT22;7661;48.904;9.414;2023-06-26T03:03:07;18.20;97.00
15121;DHT22;7661;48.904;9.414;2023-06-26T03:05:33;18.20;97.20
15121;DHT22;7661;48.904;9.414;2023-06-26T03:08:02;18.20;97.10
15121;DHT22;7661;48.904;9.414;2023-06-26T03:10:29;18.20;97.70
15121;DHT22;7661;48.904;9.414;2023-06-26T03:12:56;18.10;97.40
15121;DHT22;7661;48.904;9.414;2023-06-26T03:15:22;18.10;97.60
15121;DHT22;7661;48.904;9.414;2023-06-26T03:17:49;18.10;97.60
15121;DHT22;7661;48.904;9.414;2023-06-26T03:20:16;18.10;97.70
15121;DHT22;7661;48.904;9.414;2023-06-26T03:22:43;18.10;98.00
15121;DHT22;7661;48.904;9.414;2023-06-26T03:25:11;18.00;98.00
15121;DHT22;7661;48.904;9.414;2023-06-26T03:27:38;18.00;98.20
15121;DHT22;7661;48.904;9.414;2023-06-26T03:30:06;17.90;98.70
15121;DHT22;7661;48.904;9.414;2023-06-26T03:32:33;17.90;98.50
15121;DHT22;7661;48.904;9.414;2023-06-26T03:35:00;17.90;98.70
15121;DHT22;7661;48.904;9.414;2023-06-26T03:37:28;17.90;99.00
15121;DHT22;7661;48.904;9.414;2023-06-26T03:39:55;17.90;99.20
15121;DHT22;7661;48.904;9.414;2023-06-26T03:42:23;17.90;99.20
15121;DHT22;7661;48.904;9.414;2023-06-26T03:44:50;17.90;99.40
15121;DHT22;7661;48.904;9.414;2023-06-26T03:47:17;17.90;99.60
15121;DHT22;7661;48.904;9.414;2023-06-26T03:49:44;17.80;99.90
15121;DHT22;7661;48.904;9.414;2023-06-26T03:52:11;17.80;99.90
15121;DHT22;7661;48.904;9.414;2023-06-26T03:54:37;17.80;99.90
15121;DHT22;7661;48.904;9.414;2023-06-26T03:57:05;17.80;99.90
15121;DHT22;7661;48.904;9.414;2023-06-26T03:59:33;17.90;99.90
15121;DHT22;7661;48.904;9.414;2023-06-26T04:02:00;17.90;99.90
15121;DHT22;7661;48.904;9.414;2023-06-26T04:04:27;17.90;99.90
15121;DHT22;7661;48.904;9.414;2023-06-26T04:06:53;17.90;99.90
15121;DHT22;7661;48.904;9.414;2023-06-26T04:09:20;17.90;99.90
15121;DHT22;7661;48.904;9.414;2023-06-26T04:11:47;17.90;99.90
15121;DHT22;7661;48.904;9.414;2023-06-26T04:14:14;17.90;99.90
15121;DHT22;7661;48.904;9.414;2023-06-26T04:16:42;18.00;99.90
15121;DHT22;7661;48.904;9.414;2023-06-26T04:19:09;18.00;99.90
15121;DHT22;7661;48.904;9.414;2023-06-26T04:21:36;18.00;99.90
15121;DHT22;7661;48.904;9.414;2023-06-26T04:24:04;18.10;99.90
15121;DHT22;7661;48.904;9.414;2023-06-26T04:26:31;18.10;99.90
15121;DHT22;7661;48.904;9.414;2023-06-26T04:28:58;18.10;99.90
15121;DHT22;7661;48.904;9.414;2023-06-26T04:31:25;18.20;99.90
15121;DHT22;7661;48.904;9.414;2023-06-26T04:33:53;18.20;99.90
15121;DHT22;7661;48.904;9.414;2023-06-26T04:36:20;18.30;99.90
15121;DHT22;7661;48.904;9.414;2023-06-26T04:38:47;18.30;99.90
15121;DHT22;7661;48.904;9.414;2023-06-26T04:41:14;18.30;99.90
15121;DHT22;7661;48.904;9.414;2023-06-26T04:43:41;18.40;99.90
15121;DHT22;7661;48.904;9.414;2023-06-26T04:46:08;18.40;99.90
15121;DHT22;7661;48.904;9.414;2023-06-26T04:48:35;18.40;99.90
15121;DHT22;7661;48.904;9.414;2023-06-26T04:51:03;18.40;99.90
15121;DHT22;7661;48.904;9.414;2023-06-26T04:53:30;18.50;99.90
15121;DHT22;7661;48.904;9.414;2023-06-26T04:55:57;18.50;99.90
15121;DHT22;7661;48.904;9.414;2023-06-26T04:58:24;18.60;99.90
15121;DHT22;7661;48.904;9.414;2023-06-26T05:00:51;18.60;99.90
15121;DHT22;7661;48.904;9.414;2023-06-26T05:03:18;18.60;99.90
15121;DHT22;7661;48.904;9.414;2023-06-26T05:05:46;18.70;99.90
15121;DHT22;7661;48.904;9.414;2023-06-26T05:08:18;18.70;99.90
15121;DHT22;7661;48.904;9.414;2023-06-26T05:10:45;18.70;99.90
15121;DHT22;7661;48.904;9.414;2023-06-26T05:13:12;18.80;99.90
15121;DHT22;7661;48.904;9.414;2023-06-26T05:15:42;18.80;99.90
15121;DHT22;7661;48.904;9.414;2023-06-26T05:18:09;18.90;99.90
15121;DHT22;7661;48.904;9.414;2023-06-26T05:20:37;18.90;99.90
15121;DHT22;7661;48.904;9.414;2023-06-26T05:23:05;18.90;99.90
15121;DHT22;7661;48.904;9.414;2023-06-26T05:25:33;19.00;99.90
15121;DHT22;7661;48.904;9.414;2023-06-26T05:28:01;19.00;99.90
15121;DHT22;7661;48.904;9.414;2023-06-26T05:30:31;19.00;99.90
15121;DHT22;7661;48.904;9.414;2023-06-26T05:33:00;19.10;99.90
15121;DHT22;7661;48.904;9.414;2023-06-26T05:35:28;19.20;99.90
15121;DHT22;7661;48.904;9.414;2023-06-26T05:37:57;19.30;99.90
15121;DHT22;7661;48.904;9.414;2023-06-26T05:40:25;19.30;99.90
15121;DHT22;7661;48.904;9.414;2023-06-26T05:42:54;19.40;99.90
15121;DHT22;7661;48.904;9.414;2023-06-26T05:45:21;19.50;99.90
15121;DHT22;7661;48.904;9.414;2023-06-26T05:47:48;19.50;99.90
15121;DHT22;7661;48.904;9.414;2023-06-26T05:50:18;19.60;99.90
15121;DHT22;7661;48.904;9.414;2023-06-26T05:52:46;19.70;99.90
15121;DHT22;7661;48.904;9.414;2023-06-26T05:55:13;19.80;99.90
15121;DHT22;7661;48.904;9.414;2023-06-26T05:57:41;19.80;99.90
15121;DHT22;7661;48.904;9.414;2023-06-26T06:00:11;19.90;99.90
15121;DHT22;7661;48.904;9.414;2023-06-26T06:02:38;20.00;99.90
15121;DHT22;7661;48.904;9.414;2023-06-26T06:05:06;20.10;99.90
15121;DHT22;7661;48.904;9.414;2023-06-26T06:07:33;20.20;99.90
15121;DHT22;7661;48.904;9.414;2023-06-26T06:10:02;20.20;99.90
15121;DHT22;7661;48.904;9.414;2023-06-26T06:12:29;20.40;99.90
15121;DHT22;7661;48.904;9.414;2023-06-26T06:14:56;20.50;99.90
15121;DHT22;7661;48.904;9.414;2023-06-26T06:22:21;20.80;99.90
15121;DHT22;7661;48.904;9.414;2023-06-26T06:24:50;21.00;99.90
15121;DHT22;7661;48.904;9.414;2023-06-26T06:27:17;21.10;99.90
15121;DHT22;7661;48.904;9.414;2023-06-26T06:29:44;21.20;99.90
15121;DHT22;7661;48.904;9.414;2023-06-26T06:32:10;21.30;99.90
15121;DHT22;7661;48.904;9.414;2023-06-26T06:34:39;21.50;99.90
15121;DHT22;7661;48.904;9.414;2023-06-26T06:37:06;21.60;99.90
15121;DHT22;7661;48.904;9.414;2023-06-26T06:39:32;21.80;99.90
15121;DHT22;7661;48.904;9.414;2023-06-26T06:41:59;21.90;99.90
15121;DHT22;7661;48.904;9.414;2023-06-26T06:44:26;22.00;99.90
15121;DHT22;7661;48.904;9.414;2023-06-26T06:46:53;22.20;99.90
15121;DHT22;7661;48.904;9.414;2023-06-26T06:49:20;22.40;99.90
15121;DHT22;7661;48.904;9.414;2023-06-26T06:51:48;22.50;99.90
15121;DHT22;7661;48.904;9.414;2023-06-26T09:25:19;30.70;71.60
15121;DHT22;7661;48.904;9.414;2023-06-26T09:27:49;30.80;72.40
15121;DHT22;7661;48.904;9.414;2023-06-26T09:30:17;31.00;71.30
15121;DHT22;7661;48.904;9.414;2023-06-26T09:32:44;31.20;71.30
15121;DHT22;7661;48.904;9.414;2023-06-26T09:35:11;31.30;70.60
15121;DHT22;7661;48.904;9.414;2023-06-26T09:37:39;31.50;71.50
15121;DHT22;7661;48.904;9.414;2023-06-26T09:40:06;31.80;69.40
15121;DHT22;7661;48.904;9.414;2023-06-26T09:42:34;32.10;69.00
15121;DHT22;7661;48.904;9.414;2023-06-26T09:45:02;32.10;67.80
15121;DHT22;7661;48.904;9.414;2023-06-26T09:47:31;32.20;67.60
15121;DHT22;7661;48.904;9.414;2023-06-26T09:49:58;32.50;67.50
15121;DHT22;7661;48.904;9.414;2023-06-26T09:52:26;32.40;66.30
15121;DHT22;7661;48.904;9.414;2023-06-26T09:55:07;32.40;65.90
15121;DHT22;7661;48.904;9.414;2023-06-26T09:57:35;32.50;66.40
15121;DHT22;7661;48.904;9.414;2023-06-26T10:00:03;32.90;65.50
15121;DHT22;7661;48.904;9.414;2023-06-26T10:02:31;33.40;63.30
15121;DHT22;7661;48.904;9.414;2023-06-26T10:04:58;33.90;64.10
15121;DHT22;7661;48.904;9.414;2023-06-26T10:07:25;34.10;63.10
15121;DHT22;7661;48.904;9.414;2023-06-26T10:09:55;34.20;60.80
15121;DHT22;7661;48.904;9.414;2023-06-26T10:12:27;34.10;61.90
15121;DHT22;7661;48.904;9.414;2023-06-26T10:14:56;33.80;58.50
15121;DHT22;7661;48.904;9.414;2023-06-26T10:17:27;33.30;58.70
15121;DHT22;7661;48.904;9.414;2023-06-26T10:19:55;33.20;60.30
15121;DHT22;7661;48.904;9.414;2023-06-26T10:22:27;33.20;60.10
15121;DHT22;7661;48.904;9.414;2023-06-26T10:24:57;33.10;61.00
15121;DHT22;7661;48.904;9.414;2023-06-26T10:27:28;33.50;62.00
15121;DHT22;7661;48.904;9.414;2023-06-26T10:30:01;34.00;60.50
15121;DHT22;7661;48.904;9.414;2023-06-26T10:32:30;34.50;60.50
15121;DHT22;7661;48.904;9.414;2023-06-26T10:34:57;34.70;59.10
15121;DHT22;7661;48.904;9.414;2023-06-26T10:37:42;34.70;59.20
15121;DHT22;7661;48.904;9.414;2023-06-26T10:40:10;34.60;59.20
15121;DHT22;7661;48.904;9.414;2023-06-26T10:42:38;34.60;59.20
15121;DHT22;7661;48.904;9.414;2023-06-26T10:45:14;34.50;59.00
15121;DHT22;7661;48.904;9.414;2023-06-26T10:47:47;34.20;58.60
15121;DHT22;7661;48.904;9.414;2023-06-26T10:50:21;33.80;58.90
15121;DHT22;7661;48.904;9.414;2023-06-26T10:53:11;33.80;59.30
15121;DHT22;7661;48.904;9.414;2023-06-26T10:55:42;34.00;59.70
15121;DHT22;7661;48.904;9.414;2023-06-26T10:58:27;33.90;58.30
15121;DHT22;7661;48.904;9.414;2023-06-26T11:01:17;33.70;59.00
15121;DHT22;7661;48.904;9.414;2023-06-26T11:03:47;34.20;59.20
15121;DHT22;7661;48.904;9.414;2023-06-26T11:06:17;34.50;58.50
15121;DHT22;7661;48.904;9.414;2023-06-26T11:08:44;35.00;57.70
15121;DHT22;7661;48.904;9.414;2023-06-26T11:11:12;34.90;58.00
15121;DHT22;7661;48.904;9.414;2023-06-26T11:13:39;35.00;58.30
15121;DHT22;7661;48.904;9.414;2023-06-26T11:16:06;35.40;58.10
15121;DHT22;7661;48.904;9.414;2023-06-26T11:18:33;35.30;58.00
15121;DHT22;7661;48.904;9.414;2023-06-26T11:21:09;35.00;58.90
15121;DHT22;7661;48.904;9.414;2023-06-26T11:23:37;35.00;59.10
15121;DHT22;7661;48.904;9.414;2023-06-26T11:26:14;35.00;60.50
15121;DHT22;7661;48.904;9.414;2023-06-26T11:28:47;35.20;58.50
15121;DHT22;7661;48.904;9.414;2023-06-26T11:31:27;35.00;59.00
15121;DHT22;7661;48.904;9.414;2023-06-26T11:33:56;35.00;60.40
15121;DHT22;7661;48.904;9.414;2023-06-26T11:36:25;35.20;58.90
15121;DHT22;7661;48.904;9.414;2023-06-26T11:38:53;34.80;59.20
15121;DHT22;7661;48.904;9.414;2023-06-26T11:41:20;34.30;59.80
15121;DHT22;7661;48.904;9.414;2023-06-26T11:43:47;34.20;61.80
15121;DHT22;7661;48.904;9.414;2023-06-26T11:46:16;34.50;62.70
15121;DHT22;7661;48.904;9.414;2023-06-26T11:48:44;34.90;61.50
15121;DHT22;7661;48.904;9.414;2023-06-26T11:51:12;35.30;60.30
15121;DHT22;7661;48.904;9.414;2023-06-26T11:53:42;35.50;60.30
15121;DHT22;7661;48.904;9.414;2023-06-26T11:56:09;35.70;59.60
15121;DHT22;7661;48.904;9.414;2023-06-26T11:58:37;35.80;60.30
15121;DHT22;7661;48.904;9.414;2023-06-26T12:01:19;36.00;59.40
15121;DHT22;7661;48.904;9.414;2023-06-26T12:03:46;35.90;58.30
15121;DHT22;7661;48.904;9.414;2023-06-26T12:06:14;35.50;59.10
15121;DHT22;7661;48.904;9.414;2023-06-26T12:08:43;35.20;59.60
15121;DHT22;7661;48.904;9.414;2023-06-26T12:11:10;34.60;61.10
15121;DHT22;7661;48.904;9.414;2023-06-26T12:13:37;33.80;62.50
15121;DHT22;7661;48.904;9.414;2023-06-26T12:16:04;33.40;64.10
15121;DHT22;7661;48.904;9.414;2023-06-26T12:18:34;33.10;65.10
15121;DHT22;7661;48.904;9.414;2023-06-26T12:21:01;33.20;66.50
15121;DHT22;7661;48.904;9.414;2023-06-26T12:23:32;33.40;65.80
15121;DHT22;7661;48.904;9.414;2023-06-26T12:26:16;33.50;65.50
15121;DHT22;7661;48.904;9.414;2023-06-26T12:28:44;33.70;65.40
15121;DHT22;7661;48.904;9.414;2023-06-26T12:31:14;33.90;65.10
15121;DHT22;7661;48.904;9.414;2023-06-26T12:33:43;34.00;64.80
15121;DHT22;7661;48.904;9.414;2023-06-26T12:36:11;33.80;63.70
15121;DHT22;7661;48.904;9.414;2023-06-26T12:38:38;33.80;64.70
15121;DHT22;7661;48.904;9.414;2023-06-26T12:41:12;33.60;65.10
15121;DHT22;7661;48.904;9.414;2023-06-26T12:43:39;33.30;65.80
15121;DHT22;7661;48.904;9.414;2023-06-26T12:46:06;33.20;66.70
15121;DHT22;7661;48.904;9.414;2023-06-26T12:48:44;33.30;67.30
15121;DHT22;7661;48.904;9.414;2023-06-26T12:51:13;33.90;65.10
15121;DHT22;7661;48.904;9.414;2023-06-26T12:53:40;34.30;63.50
15121;DHT22;7661;48.904;9.414;2023-06-26T12:56:09;34.30;63.70
15121;DHT22;7661;48.904;9.414;2023-06-26T12:58:37;34.20;64.00
15121;DHT22;7661;48.904;9.414;2023-06-26T13:01:06;34.40;63.10
15121;DHT22;7661;48.904;9.414;2023-06-26T13:03:36;35.00;62.00
15121;DHT22;7661;48.904;9.414;2023-06-26T13:06:03;35.10;62.00
15121;DHT22;7661;48.904;9.414;2023-06-26T13:08:30;35.00;61.70
15121;DHT22;7661;48.904;9.414;2023-06-26T13:10:57;35.20;61.10
15121;DHT22;7661;48.904;9.414;2023-06-26T13:13:25;35.40;61.10
15121;DHT22;7661;48.904;9.414;2023-06-26T13:15:52;35.30;60.70
15121;DHT22;7661;48.904;9.414;2023-06-26T13:18:19;35.30;60.50
15121;DHT22;7661;48.904;9.414;2023-06-26T13:20:46;35.30;60.70
15121;DHT22;7661;48.904;9.414;2023-06-26T13:23:13;35.30;60.50
15121;DHT22;7661;48.904;9.414;2023-06-26T13:25:40;35.40;61.40
15121;DHT22;7661;48.904;9.414;2023-06-26T13:28:07;35.60;59.60
15121;DHT22;7661;48.904;9.414;2023-06-26T13:30:36;35.50;59.40
15121;DHT22;7661;48.904;9.414;2023-06-26T13:33:03;35.40;58.20
15121;DHT22;7661;48.904;9.414;2023-06-26T13:35:30;35.50;58.40
15121;DHT22;7661;48.904;9.414;2023-06-26T13:37:57;35.00;58.80
15121;DHT22;7661;48.904;9.414;2023-06-26T13:40:23;34.70;57.70
15121;DHT22;7661;48.904;9.414;2023-06-26T13:42:50;34.40;56.60
15121;DHT22;7661;48.904;9.414;2023-06-26T13:45:17;34.30;55.80
15121;DHT22;7661;48.904;9.414;2023-06-26T13:47:46;34.40;56.50
15121;DHT22;7661;48.904;9.414;2023-06-26T13:50:12;34.50;56.20
15121;DHT22;7661;48.904;9.414;2023-06-26T13:52:39;34.50;56.10
15121;DHT22;7661;48.904;9.414;2023-06-26T13:55:07;34.50;56.50
15121;DHT22;7661;48.904;9.414;2023-06-26T13:57:34;34.40;57.10
15121;DHT22;7661;48.904;9.414;2023-06-26T14:00:08;34.50;56.10
15121;DHT22;7661;48.904;9.414;2023-06-26T14:02:35;34.30;55.70
15121;DHT22;7661;48.904;9.414;2023-06-26T14:05:04;34.00;57.10
15121;DHT22;7661;48.904;9.414;2023-06-26T14:07:31;34.20;56.70
15121;DHT22;7661;48.904;9.414;2023-06-26T14:09:57;34.00;55.60
15121;DHT22;7661;48.904;9.414;2023-06-26T14:12:56;33.70;56.80
15121;DHT22;7661;48.904;9.414;2023-06-26T14:16:02;33.90;56.20
15121;DHT22;7661;48.904;9.414;2023-06-26T14:18:30;34.10;55.40
15121;DHT22;7661;48.904;9.414;2023-06-26T14:20:58;34.30;54.20
15121;DHT22;7661;48.904;9.414;2023-06-26T14:23:25;33.60;53.80
15121;DHT22;7661;48.904;9.414;2023-06-26T14:25:52;33.40;54.30
15121;DHT22;7661;48.904;9.414;2023-06-26T14:28:19;33.70;55.20
15121;DHT22;7661;48.904;9.414;2023-06-26T14:30:46;33.80;55.40
15121;DHT22;7661;48.904;9.414;2023-06-26T14:33:13;33.90;55.00
15121;DHT22;7661;48.904;9.414;2023-06-26T14:35:40;33.80;53.00
15121;DHT22;7661;48.904;9.414;2023-06-26T14:38:08;33.50;53.50
15121;DHT22;7661;48.904;9.414;2023-06-26T14:40:36;33.30;54.50
15121;DHT22;7661;48.904;9.414;2023-06-26T14:43:03;33.20;54.20
15121;DHT22;7661;48.904;9.414;2023-06-26T14:45:30;33.10;54.50
15121;DHT22;7661;48.904;9.414;2023-06-26T14:47:57;32.90;55.70
15121;DHT22;7661;48.904;9.414;2023-06-26T14:50:24;33.20;54.70
15121;DHT22;7661;48.904;9.414;2023-06-26T14:52:51;33.20;54.00
15121;DHT22;7661;48.904;9.414;2023-06-26T14:55:19;33.30;54.90
15121;DHT22;7661;48.904;9.414;2023-06-26T14:57:46;33.40;54.00
15121;DHT22;7661;48.904;9.414;2023-06-26T15:00:14;33.40;54.20
15121;DHT22;7661;48.904;9.414;2023-06-26T15:02:41;33.60;54.80
15121;DHT22;7661;48.904;9.414;2023-06-26T15:05:08;33.50;54.30
15121;DHT22;7661;48.904;9.414;2023-06-26T15:07:35;33.10;55.50
15121;DHT22;7661;48.904;9.414;2023-06-26T15:10:02;32.90;54.80
15121;DHT22;7661;48.904;9.414;2023-06-26T15:12:30;32.30;54.60
15121;DHT22;7661;48.904;9.414;2023-06-26T15:14:57;32.10;55.80
15121;DHT22;7661;48.904;9.414;2023-06-26T15:17:24;32.10;55.90
15121;DHT22;7661;48.904;9.414;2023-06-26T15:19:51;32.00;55.90
15121;DHT22;7661;48.904;9.414;2023-06-26T15:22:18;31.80;57.40
15121;DHT22;7661;48.904;9.414;2023-06-26T15:24:45;31.60;56.60
15121;DHT22;7661;48.904;9.414;2023-06-26T15:27:12;31.20;56.90
15121;DHT22;7661;48.904;9.414;2023-06-26T15:29:41;31.10;58.40
15121;DHT22;7661;48.904;9.414;2023-06-26T15:32:08;31.40;58.40
15121;DHT22;7661;48.904;9.414;2023-06-26T15:34:35;31.40;57.90
15121;DHT22;7661;48.904;9.414;2023-06-26T15:37:02;31.50;58.50
15121;DHT22;7661;48.904;9.414;2023-06-26T15:39:29;31.60;57.90
15121;DHT22;7661;48.904;9.414;2023-06-26T15:41:55;31.50;57.20
15121;DHT22;7661;48.904;9.414;2023-06-26T15:44:22;31.10;57.60
15121;DHT22;7661;48.904;9.414;2023-06-26T15:46:51;31.00;58.70
15121;DHT22;7661;48.904;9.414;2023-06-26T15:49:18;30.90;58.70
15121;DHT22;7661;48.904;9.414;2023-06-26T15:51:44;30.80;59.10
15121;DHT22;7661;48.904;9.414;2023-06-26T15:54:13;30.70;59.00
15121;DHT22;7661;48.904;9.414;2023-06-26T15:56:40;30.60;59.90
15121;DHT22;7661;48.904;9.414;2023-06-26T15:59:07;30.50;59.60
15121;DHT22;7661;48.904;9.414;2023-06-26T16:01:34;30.10;60.40
15121;DHT22;7661;48.904;9.414;2023-06-26T16:04:03;30.20;61.00
15121;DHT22;7661;48.904;9.414;2023-06-26T16:06:30;30.20;59.90
15121;DHT22;7661;48.904;9.414;2023-06-26T16:08:57;30.10;60.10
15121;DHT22;7661;48.904;9.414;2023-06-26T16:11:23;29.90;60.10
15121;DHT22;7661;48.904;9.414;2023-06-26T16:13:50;29.80;60.80
15121;DHT22;7661;48.904;9.414;2023-06-26T16:16:17;29.70;61.00
15121;DHT22;7661;48.904;9.414;2023-06-26T16:18:44;29.60;60.70
15121;DHT22;7661;48.904;9.414;2023-06-26T16:21:12;29.70;60.80
15121;DHT22;7661;48.904;9.414;2023-06-26T16:23:40;29.60;61.30
15121;DHT22;7661;48.904;9.414;2023-06-26T16:26:06;29.60;62.10
15121;DHT22;7661;48.904;9.414;2023-06-26T16:28:33;29.70;61.30
15121;DHT22;7661;48.904;9.414;2023-06-26T16:31:00;29.50;60.60
15121;DHT22;7661;48.904;9.414;2023-06-26T16:33:27;29.30;61.20
15121;DHT22;7661;48.904;9.414;2023-06-26T16:35:54;29.40;60.60
15121;DHT22;7661;48.904;9.414;2023-06-26T16:38:22;29.30;60.50
15121;DHT22;7661;48.904;9.414;2023-06-26T16:40:49;29.30;60.60
15121;DHT22;7661;48.904;9.414;2023-06-26T16:43:16;29.30;59.70
15121;DHT22;7661;48.904;9.414;2023-06-26T16:45:43;29.20;60.30
15121;DHT22;7661;48.904;9.414;2023-06-26T16:48:09;29.10;60.10
15121;DHT22;7661;48.904;9.414;2023-06-26T16:50:36;29.00;59.80
15121;DHT22;7661;48.904;9.414;2023-06-26T16:53:03;28.90;59.80
15121;DHT22;7661;48.904;9.414;2023-06-26T16:55:31;28.70;59.20
15121;DHT22;7661;48.904;9.414;2023-06-26T16:57:58;28.50;59.00
15121;DHT22;7661;48.904;9.414;2023-06-26T17:00:25;28.40;58.90
15121;DHT22;7661;48.904;9.414;2023-06-26T17:02:52;28.40;58.00
15121;DHT22;7661;48.904;9.414;2023-06-26T17:05:19;28.40;58.00
15121;DHT22;7661;48.904;9.414;2023-06-26T17:07:45;28.40;57.90
15121;DHT22;7661;48.904;9.414;2023-06-26T17:10:12;28.40;57.60
15121;DHT22;7661;48.904;9.414;2023-06-26T17:12:41;28.40;56.70
15121;DHT22;7661;48.904;9.414;2023-06-26T17:15:08;28.40;57.80
15121;DHT22;7661;48.904;9.414;2023-06-26T17:17:35;28.30;56.10
15121;DHT22;7661;48.904;9.414;2023-06-26T17:20:03;28.40;55.20
15121;DHT22;7661;48.904;9.414;2023-06-26T17:22:32;28.40;52.80
15121;DHT22;7661;48.904;9.414;2023-06-26T17:24:59;28.40;51.70
15121;DHT22;7661;48.904;9.414;2023-06-26T17:27:30;28.40;51.40
15121;DHT22;7661;48.904;9.414;2023-06-26T17:29:58;28.20;50.20
15121;DHT22;7661;48.904;9.414;2023-06-26T17:32:25;27.90;48.00
15121;DHT22;7661;48.904;9.414;2023-06-26T17:34:53;27.80;48.10
15121;DHT22;7661;48.904;9.414;2023-06-26T17:37:20;27.80;48.70
15121;DHT22;7661;48.904;9.414;2023-06-26T17:39:48;27.80;49.30
15121;DHT22;7661;48.904;9.414;2023-06-26T17:42:15;27.80;49.10
15121;DHT22;7661;48.904;9.414;2023-06-26T17:44:42;27.80;47.70
15121;DHT22;7661;48.904;9.414;2023-06-26T17:47:10;27.60;47.70
15121;DHT22;7661;48.904;9.414;2023-06-26T17:49:37;27.40;47.90
15121;DHT22;7661;48.904;9.414;2023-06-26T17:52:05;27.20;48.50
15121;DHT22;7661;48.904;9.414;2023-06-26T17:54:32;27.20;48.30
15121;DHT22;7661;48.904;9.414;2023-06-26T17:56:59;27.00;48.80
15121;DHT22;7661;48.904;9.414;2023-06-26T17:59:25;27.00;49.30
15121;DHT22;7661;48.904;9.414;2023-06-26T18:01:52;27.00;48.80
15121;DHT22;7661;48.904;9.414;2023-06-26T18:04:21;26.90;49.50
15121;DHT22;7661;48.904;9.414;2023-06-26T18:06:48;26.80;49.50
15121;DHT22;7661;48.904;9.414;2023-06-26T18:09:15;26.70;50.50
15121;DHT22;7661;48.904;9.414;2023-06-26T18:11:42;26.70;50.90
15121;DHT22;7661;48.904;9.414;2023-06-26T18:14:08;26.60;50.70
15121;DHT22;7661;48.904;9.414;2023-06-26T18:16:36;26.60;51.10
15121;DHT22;7661;48.904;9.414;2023-06-26T18:19:03;26.50;51.20
15121;DHT22;7661;48.904;9.414;2023-06-26T18:21:32;26.40;52.00
15121;DHT22;7661;48.904;9.414;2023-06-26T18:23:58;26.30;52.40
15121;DHT22;7661;48.904;9.414;2023-06-26T18:26:25;26.30;52.80
15121;DHT22;7661;48.904;9.414;2023-06-26T18:28:52;26.20;52.90
15121;DHT22;7661;48.904;9.414;2023-06-26T18:31:21;26.20;53.80
15121;DHT22;7661;48.904;9.414;2023-06-26T18:33:48;26.10;53.40
15121;DHT22;7661;48.904;9.414;2023-06-26T18:36:15;26.00;53.50